TimeCST,TemperatureF,Dew PointF,Humidity,Sea Level PressureIn,VisibilityMPH,Wind Direction,Wind SpeedMPH,Gust SpeedMPH,PrecipitationIn,Events,Conditions,WindDirDegrees,DateUTC
12:14 AM,3.2,-5.8,66,30.24,10.0,West,3.5,-,N/A,,Clear,260,2012-12-25 06:14:00
12:33 AM,3.2,-5.8,66,30.25,10.0,West,4.6,-,N/A,,Clear,270,2012-12-25 06:33:00
12:54 AM,1.4,-5.8,72,30.25,10.0,WNW,3.5,-,N/A,,Clear,290,2012-12-25 06:54:00
1:14 AM,1.4,-7.6,66,30.26,10.0,West,4.6,-,N/A,,Clear,260,2012-12-25 07:14:00
1:34 AM,1.4,-5.8,72,30.27,10.0,West,4.6,-,N/A,,Clear,270,2012-12-25 07:34:00
1:54 AM,1.4,-5.8,72,30.28,10.0,Calm,Calm,-,N/A,,Clear,0,2012-12-25 07:54:00
2:13 AM,1.4,-7.6,66,30.29,10.0,Calm,Calm,-,N/A,,Clear,0,2012-12-25 08:13:00
2:34 AM,1.4,-7.6,66,30.30,10.0,Calm,Calm,-,N/A,,Clear,0,2012-12-25 08:34:00
2:53 AM,1.4,-5.8,72,30.31,10.0,NW,3.5,-,N/A,,Clear,310,2012-12-25 08:53:00
3:14 AM,1.4,-5.8,72,30.31,10.0,NW,3.5,-,N/A,,Clear,310,2012-12-25 09:14:00
3:34 AM,1.4,-5.8,72,30.31,10.0,WNW,4.6,-,N/A,,Clear,300,2012-12-25 09:34:00
3:54 AM,1.4,-5.8,72,30.32,10.0,NW,6.9,-,N/A,,Clear,310,2012-12-25 09:54:00
4:13 AM,1.4,-5.8,72,30.32,10.0,WNW,5.8,-,N/A,,Clear,300,2012-12-25 10:13:00
4:34 AM,1.4,-7.6,66,30.32,10.0,WNW,4.6,-,N/A,,Clear,300,2012-12-25 10:34:00
4:54 AM,-0.4,-7.6,72,30.33,10.0,Calm,Calm,-,N/A,,Clear,0,2012-12-25 10:54:00
5:14 AM,-0.4,-7.6,72,30.33,10.0,WNW,3.5,-,N/A,,Clear,300,2012-12-25 11:14:00
5:34 AM,-0.4,-9.4,66,30.34,10.0,NW,4.6,-,N/A,,Clear,310,2012-12-25 11:34:00
5:54 AM,-0.4,-9.4,66,30.34,10.0,NW,4.6,-,N/A,,Clear,310,2012-12-25 11:54:00
6:14 AM,-0.4,-7.6,72,30.34,10.0,NW,5.8,-,N/A,,Clear,310,2012-12-25 12:14:00
6:34 AM,-0.4,-9.4,66,30.34,10.0,NW,5.8,-,N/A,,Clear,310,2012-12-25 12:34:00
6:54 AM,-0.4,-9.4,66,30.35,10.0,NW,6.9,-,N/A,,Clear,320,2012-12-25 12:54:00
7:14 AM,-0.4,-7.6,72,30.35,10.0,NNW,4.6,-,N/A,,Clear,330,2012-12-25 13:14:00
7:34 AM,-0.4,-9.4,66,30.36,10.0,NNW,3.5,-,N/A,,Clear,330,2012-12-25 13:34:00
7:54 AM,-0.4,-7.6,72,30.37,10.0,NNW,3.5,-,N/A,,Clear,330,2012-12-25 13:54:00
8:14 AM,-0.4,-7.6,72,30.38,10.0,NW,3.5,-,N/A,,Clear,310,2012-12-25 14:14:00
8:34 AM,1.4,-7.6,66,30.39,10.0,Calm,Calm,-,N/A,,Clear,0,2012-12-25 14:34:00
8:54 AM,1.4,-7.6,66,30.40,10.0,WNW,3.5,-,N/A,,Clear,300,2012-12-25 14:54:00
9:14 AM,1.4,-5.8,72,30.40,10.0,NW,4.6,-,N/A,,Clear,320,2012-12-25 15:14:00
9:34 AM,3.2,-5.8,66,30.41,10.0,NNW,5.8,-,N/A,,Clear,340,2012-12-25 15:34:00
9:54 AM,3.2,-4.0,72,30.41,10.0,NNW,6.9,-,N/A,,Clear,330,2012-12-25 15:54:00
10:14 AM,5.0,-4.0,66,30.42,10.0,NNW,8.1,-,N/A,,Clear,330,2012-12-25 16:14:00
10:33 AM,6.8,-2.2,67,30.42,10.0,NNW,6.9,-,N/A,,Clear,330,2012-12-25 16:33:00
10:54 AM,6.8,-2.2,67,30.42,10.0,NW,6.9,-,N/A,,Clear,320,2012-12-25 16:54:00
11:14 AM,6.8,-2.2,67,30.41,10.0,NW,5.8,-,N/A,,Clear,320,2012-12-25 17:14:00
11:34 AM,8.6,-2.2,62,30.41,10.0,NW,6.9,-,N/A,,Clear,320,2012-12-25 17:34:00
11:54 AM,8.6,-0.4,67,30.41,10.0,WNW,5.8,-,N/A,,Clear,290,2012-12-25 17:54:00
12:14 PM,10.4,-0.4,62,30.42,10.0,WNW,5.8,-,N/A,,Clear,290,2012-12-25 18:14:00
12:34 PM,10.4,-0.4,62,30.41,10.0,WNW,6.9,-,N/A,,Clear,300,2012-12-25 18:34:00
12:53 PM,10.4,-0.4,62,30.41,10.0,NW,8.1,-,N/A,,Clear,310,2012-12-25 18:53:00
1:14 PM,10.4,-0.4,62,30.40,10.0,NW,8.1,-,N/A,,Clear,320,2012-12-25 19:14:00
1:34 PM,10.4,1.4,67,30.40,10.0,NW,9.2,-,N/A,,Clear,320,2012-12-25 19:34:00
1:54 PM,10.4,-0.4,62,30.38,10.0,NW,9.2,-,N/A,,Clear,310,2012-12-25 19:54:00
2:14 PM,12.2,-0.4,57,30.37,10.0,NNW,9.2,-,N/A,,Clear,330,2012-12-25 20:14:00
2:34 PM,12.2,1.4,62,30.37,10.0,NNW,8.1,-,N/A,,Clear,340,2012-12-25 20:34:00
2:54 PM,12.2,-0.4,57,30.36,10.0,NW,9.2,-,N/A,,Clear,320,2012-12-25 20:54:00
3:14 PM,12.2,1.4,62,30.35,10.0,NNW,11.5,-,N/A,,Clear,330,2012-12-25 21:14:00
3:34 PM,12.2,-0.4,57,30.36,10.0,NW,9.2,-,N/A,,Clear,320,2012-12-25 21:34:00
3:54 PM,12.2,1.4,62,30.36,10.0,NW,9.2,-,N/A,,Clear,310,2012-12-25 21:54:00
4:14 PM,10.4,-0.4,62,30.37,10.0,NW,6.9,-,N/A,,Clear,310,2012-12-25 22:14:00
4:54 PM,8.6,-0.4,67,30.40,10.0,NW,5.8,-,N/A,,Clear,320,2012-12-25 22:54:00
5:14 PM,8.6,-2.2,62,30.39,10.0,NNW,8.1,-,N/A,,Clear,340,2012-12-25 23:14:00
5:34 PM,8.6,-2.2,62,30.41,10.0,NW,4.6,-,N/A,,Clear,310,2012-12-25 23:34:00
5:54 PM,8.6,-2.2,62,30.42,10.0,West,3.5,-,N/A,,Clear,280,2012-12-25 23:54:00
6:14 PM,6.8,-2.2,67,30.42,10.0,WNW,5.8,-,N/A,,Clear,300,2012-12-26 00:14:00
6:34 PM,6.8,-2.2,67,30.42,10.0,WNW,4.6,-,N/A,,Clear,290,2012-12-26 00:34:00
6:53 PM,6.8,-2.2,67,30.42,10.0,WNW,5.8,-,N/A,,Clear,290,2012-12-26 00:53:00
7:14 PM,6.8,-2.2,67,30.42,10.0,West,3.5,-,N/A,,Clear,280,2012-12-26 01:14:00
7:34 PM,5.0,-4.0,66,30.42,10.0,West,3.5,-,N/A,,Clear,280,2012-12-26 01:34:00
7:54 PM,6.8,-2.2,67,30.41,10.0,West,4.6,-,N/A,,Clear,280,2012-12-26 01:54:00
8:14 PM,6.8,-2.2,67,30.40,10.0,WNW,4.6,-,N/A,,Clear,300,2012-12-26 02:14:00
8:34 PM,6.8,-2.2,67,30.40,10.0,WNW,4.6,-,N/A,,Clear,290,2012-12-26 02:34:00
8:54 PM,6.8,-2.2,67,30.39,10.0,WNW,5.8,-,N/A,,Clear,300,2012-12-26 02:54:00
9:14 PM,6.8,-2.2,67,30.38,10.0,NW,4.6,-,N/A,,Clear,310,2012-12-26 03:14:00
9:34 PM,5.0,-4.0,66,30.38,10.0,NW,3.5,-,N/A,,Clear,320,2012-12-26 03:34:00
9:54 PM,5.0,-4.0,66,30.38,10.0,NW,3.5,-,N/A,,Clear,310,2012-12-26 03:54:00
10:14 PM,3.2,-4.0,72,30.37,10.0,WNW,4.6,-,N/A,,Clear,300,2012-12-26 04:14:00
10:34 PM,3.2,-4.0,72,30.37,10.0,Calm,Calm,-,N/A,,Clear,0,2012-12-26 04:34:00
10:54 PM,3.2,-4.0,72,30.37,10.0,NW,3.5,-,N/A,,Clear,310,2012-12-26 04:54:00
11:13 PM,3.2,-5.8,66,30.36,10.0,NW,3.5,-,N/A,,Clear,310,2012-12-26 05:13:00
11:34 PM,3.2,-5.8,66,30.35,10.0,Calm,Calm,-,N/A,,Clear,0,2012-12-26 05:34:00
11:54 PM,1.4,-5.8,72,30.34,10.0,NW,4.6,-,N/A,,Clear,310,2012-12-26 05:54:00